createdAt,value
2017-08-22T00:01:51.995Z,88.60
2017-08-22T00:04:19.864Z,87.70
2017-08-22T00:06:47.607Z,87.50
2017-08-22T00:09:15.319Z,88.10
2017-08-22T00:11:43.158Z,87.40
2017-08-22T00:14:11.026Z,88.20
2017-08-22T00:16:38.892Z,87.60
2017-08-22T00:19:06.765Z,88.30
2017-08-22T00:21:34.639Z,87.20
2017-08-22T00:24:02.496Z,87.40
2017-08-22T00:26:30.468Z,87.10
2017-08-22T00:28:58.338Z,86.80
2017-08-22T00:31:26.204Z,86.00
2017-08-22T00:33:53.934Z,86.20
2017-08-22T00:36:21.666Z,87.50
2017-08-22T00:38:49.410Z,87.50
2017-08-22T00:41:17.259Z,86.80
2017-08-22T00:43:45.053Z,87.60
2017-08-22T00:46:12.891Z,87.20
2017-08-22T00:48:40.758Z,87.00
2017-08-22T00:51:08.727Z,86.70
2017-08-22T00:53:36.596Z,86.60
2017-08-22T00:56:04.565Z,88.10
2017-08-22T00:58:32.432Z,87.50
2017-08-22T01:01:00.183Z,86.70
2017-08-22T01:03:27.950Z,87.60
2017-08-22T01:05:55.710Z,87.80
2017-08-22T01:08:23.439Z,87.80
2017-08-22T01:10:51.170Z,87.30
2017-08-22T01:13:19.021Z,87.60
2017-08-22T01:15:46.889Z,88.00
2017-08-22T01:18:14.758Z,87.70
2017-08-22T01:20:42.622Z,86.60
2017-08-22T01:23:10.361Z,86.00
2017-08-22T01:25:38.082Z,86.20
2017-08-22T01:28:05.879Z,86.10
2017-08-22T01:30:33.685Z,86.60
2017-08-22T01:33:01.474Z,86.80
2017-08-22T01:35:29.202Z,86.70
2017-08-22T01:37:56.979Z,86.30
2017-08-22T01:40:24.755Z,85.70
2017-08-22T01:42:52.520Z,85.90
2017-08-22T01:45:20.277Z,86.60
2017-08-22T01:47:48.000Z,87.80
2017-08-22T01:50:15.801Z,89.10
2017-08-22T01:52:43.668Z,89.20
2017-08-22T01:55:11.536Z,88.40
2017-08-22T01:57:39.403Z,88.30
2017-08-22T02:00:07.271Z,88.40
2017-08-22T02:02:35.138Z,88.70
2017-08-22T02:05:02.939Z,89.00
2017-08-22T02:07:30.770Z,88.90
2017-08-22T02:09:58.566Z,88.80
2017-08-22T02:12:26.505Z,88.80
2017-08-22T02:14:54.372Z,88.90
2017-08-22T02:17:22.240Z,88.60
2017-08-22T02:19:50.107Z,88.60
2017-08-22T02:22:17.974Z,89.20
2017-08-22T02:24:45.842Z,90.10
2017-08-22T02:27:13.710Z,89.50
2017-08-22T02:29:41.576Z,89.90
2017-08-22T02:32:09.287Z,90.00
2017-08-22T02:34:36.997Z,90.40
2017-08-22T02:37:04.870Z,90.10
2017-08-22T02:39:32.739Z,90.00
2017-08-22T02:42:00.707Z,89.60
2017-08-22T02:44:28.587Z,89.70
2017-08-22T02:46:56.443Z,90.00
2017-08-22T02:49:24.242Z,90.20
2017-08-22T02:51:52.074Z,90.20
2017-08-22T02:54:19.943Z,89.90
2017-08-22T02:56:47.809Z,89.90
2017-08-22T02:59:15.676Z,90.20
2017-08-22T03:01:43.543Z,89.70
2017-08-22T03:04:11.412Z,89.90
2017-08-22T03:06:39.279Z,90.00
2017-08-22T03:09:07.146Z,89.60
2017-08-22T03:11:34.858Z,89.70
2017-08-22T03:14:02.582Z,90.00
2017-08-22T03:16:30.440Z,89.80
2017-08-22T03:18:58.153Z,89.80
2017-08-22T03:21:25.971Z,90.10
2017-08-22T03:23:53.837Z,90.00
2017-08-22T03:26:21.704Z,89.50
2017-08-22T03:28:49.572Z,89.40
2017-08-22T03:31:17.439Z,89.10
2017-08-22T03:33:45.145Z,89.70
2017-08-22T03:36:12.972Z,89.60
2017-08-22T03:38:40.838Z,89.40
2017-08-22T03:41:08.708Z,89.20
2017-08-22T03:43:36.576Z,89.90
2017-08-22T03:46:04.374Z,90.00
2017-08-22T03:48:32.102Z,90.00
2017-08-22T03:50:59.873Z,89.70
2017-08-22T03:53:27.732Z,89.90
2017-08-22T03:55:55.601Z,89.80
2017-08-22T03:58:23.468Z,89.50
2017-08-22T04:00:51.335Z,89.60
2017-08-22T04:03:19.061Z,89.90
2017-08-22T04:05:46.864Z,89.80
2017-08-22T04:08:14.734Z,90.10
2017-08-22T04:10:42.601Z,89.60
2017-08-22T04:13:10.467Z,90.10
2017-08-22T04:15:38.196Z,90.20
2017-08-22T04:18:05.905Z,89.90
2017-08-22T04:20:33.760Z,89.50
2017-08-22T04:23:01.644Z,89.70
2017-08-22T04:25:29.497Z,89.40
2017-08-22T04:27:57.364Z,90.10
2017-08-22T04:30:25.230Z,90.00
2017-08-22T04:32:53.099Z,90.00
2017-08-22T04:35:20.965Z,89.50
2017-08-22T04:37:48.732Z,90.00
2017-08-22T04:40:16.597Z,90.10
2017-08-22T04:42:44.465Z,90.10
2017-08-22T04:45:12.331Z,90.20
2017-08-22T04:47:40.200Z,90.40
2017-08-22T04:50:08.066Z,90.30
2017-08-22T04:52:35.934Z,90.50
2017-08-22T04:55:03.801Z,90.30
2017-08-22T04:57:31.668Z,90.10
2017-08-22T04:59:59.535Z,90.40
2017-08-22T05:02:27.404Z,90.10
2017-08-22T05:04:55.269Z,89.80
2017-08-22T05:07:23.138Z,90.00
2017-08-22T05:09:51.005Z,89.60
2017-08-22T05:12:18.872Z,90.00
2017-08-22T05:14:46.740Z,89.70
2017-08-22T05:17:14.608Z,89.70
2017-08-22T05:19:42.474Z,89.50
2017-08-22T05:22:10.342Z,89.60
2017-08-22T05:24:38.209Z,89.90
2017-08-22T05:27:06.076Z,89.90
2017-08-22T05:29:33.943Z,90.00
2017-08-22T05:32:01.810Z,90.10
2017-08-22T05:34:29.678Z,90.10
2017-08-22T05:36:57.545Z,90.10
2017-08-22T05:39:25.413Z,89.60
2017-08-22T05:41:53.279Z,89.90
2017-08-22T05:44:22.606Z,89.50
2017-08-22T05:46:50.448Z,89.40
2017-08-22T05:49:20.367Z,89.40
2017-08-22T05:51:48.230Z,89.10
2017-08-22T05:54:16.098Z,89.20
2017-08-22T05:56:43.967Z,89.40
2017-08-22T05:59:11.831Z,89.00
2017-08-22T06:01:39.699Z,88.80
2017-08-22T06:04:07.567Z,88.80
2017-08-22T06:06:35.434Z,88.30
2017-08-22T06:09:03.301Z,88.40
2017-08-22T06:11:31.169Z,88.20
2017-08-22T06:13:59.031Z,88.00
2017-08-22T06:16:26.904Z,87.50
2017-08-22T06:18:54.771Z,88.00
2017-08-22T06:21:22.632Z,87.40
2017-08-22T06:23:50.505Z,86.70
2017-08-22T06:26:18.373Z,85.50
2017-08-22T06:28:46.240Z,85.10
2017-08-22T06:31:14.107Z,84.20
2017-08-22T06:33:41.974Z,81.80
2017-08-22T06:36:09.845Z,78.80
2017-08-22T06:38:37.710Z,75.40
2017-08-22T06:41:05.576Z,71.80
2017-08-22T06:43:33.440Z,68.20
2017-08-22T06:46:01.315Z,64.40
2017-08-22T06:48:29.183Z,61.80
2017-08-22T06:50:57.052Z,59.20
2017-08-22T06:53:24.912Z,57.00
2017-08-22T06:55:52.784Z,55.00
2017-08-22T06:58:20.652Z,53.60
2017-08-22T07:00:48.516Z,51.80
2017-08-22T07:03:16.384Z,50.50
2017-08-22T07:05:44.250Z,49.30
2017-08-22T07:08:12.116Z,49.80
2017-08-22T07:10:39.983Z,49.30
2017-08-22T07:13:07.851Z,49.80
2017-08-22T07:15:35.717Z,49.30
2017-08-22T07:18:03.585Z,49.30
2017-08-22T07:20:31.453Z,47.80
2017-08-22T07:22:59.320Z,47.10
2017-08-22T07:25:27.188Z,46.40
2017-08-22T07:27:55.056Z,45.80
2017-08-22T07:30:22.923Z,46.20
2017-08-22T07:32:50.790Z,46.40
2017-08-22T07:35:18.656Z,45.70
2017-08-22T07:37:46.524Z,46.80
2017-08-22T07:40:14.391Z,48.20
2017-08-22T07:42:42.258Z,48.30
2017-08-22T07:45:10.126Z,50.00
2017-08-22T07:47:37.993Z,49.00
2017-08-22T07:50:05.861Z,52.00
2017-08-22T07:52:33.727Z,52.60
2017-08-22T07:55:01.594Z,53.60
2017-08-22T07:57:29.461Z,55.00
2017-08-22T07:59:57.330Z,55.80
2017-08-22T08:02:25.197Z,56.60
2017-08-22T08:04:53.064Z,56.90
2017-08-22T08:07:20.931Z,56.40
2017-08-22T08:09:49.106Z,57.60
2017-08-22T08:12:16.973Z,55.90
2017-08-22T08:14:44.770Z,57.80
2017-08-22T08:17:13.424Z,57.00
2017-08-22T08:19:41.292Z,56.90
2017-08-22T08:22:09.159Z,56.90
2017-08-22T08:24:37.028Z,56.40
2017-08-22T08:27:04.893Z,56.50
2017-08-22T08:29:32.760Z,56.10
2017-08-22T08:32:00.627Z,56.40
2017-08-22T08:34:28.495Z,55.50
2017-08-22T08:36:56.362Z,54.60
2017-08-22T08:39:24.223Z,54.40
2017-08-22T08:41:52.027Z,54.10
2017-08-22T08:44:19.862Z,54.60
2017-08-22T08:46:47.733Z,54.20
2017-08-22T08:49:15.596Z,53.70
2017-08-22T08:51:43.464Z,53.20
2017-08-22T08:54:11.331Z,52.50
2017-08-22T08:56:39.199Z,52.10
2017-08-22T08:59:07.089Z,51.60
2017-08-22T09:01:34.936Z,51.20
2017-08-22T09:04:02.801Z,50.90
2017-08-22T09:06:30.668Z,50.90
2017-08-22T09:08:58.535Z,50.30
2017-08-22T09:11:26.402Z,50.70
2017-08-22T09:13:54.270Z,50.80
2017-08-22T09:16:22.139Z,49.50
2017-08-22T09:18:50.003Z,49.70
2017-08-22T09:21:17.871Z,50.20
2017-08-22T09:23:45.738Z,48.60
2017-08-22T09:26:13.607Z,49.70
2017-08-22T09:28:41.477Z,47.10
2017-08-22T09:31:09.339Z,47.80
2017-08-22T09:33:37.207Z,47.80
2017-08-22T09:36:05.073Z,47.30
2017-08-22T09:38:32.942Z,46.90
2017-08-22T09:41:00.810Z,46.90
2017-08-22T09:43:28.676Z,46.40
2017-08-22T09:45:56.544Z,44.10
2017-08-22T09:48:24.411Z,45.40
2017-08-22T09:50:52.279Z,45.60
2017-08-22T09:53:20.146Z,44.90
2017-08-22T09:55:48.014Z,41.20
2017-08-22T09:58:15.982Z,44.90
2017-08-22T10:00:43.855Z,43.50
2017-08-22T10:03:11.721Z,41.10
2017-08-22T10:05:39.586Z,43.20
2017-08-22T10:08:07.452Z,42.60
2017-08-22T10:10:35.323Z,42.90
2017-08-22T10:13:03.191Z,44.00
2017-08-22T10:15:31.057Z,41.40
2017-08-22T10:17:58.921Z,39.70
2017-08-22T10:20:26.789Z,37.30
2017-08-22T10:22:54.656Z,37.50
2017-08-22T10:25:22.522Z,40.70
2017-08-22T10:27:50.389Z,41.90
2017-08-22T10:30:18.256Z,42.60
2017-08-22T10:32:46.124Z,39.70
2017-08-22T10:35:13.991Z,40.80
2017-08-22T10:37:41.859Z,39.90
2017-08-22T10:40:09.725Z,36.20
2017-08-22T10:42:37.594Z,34.60
2017-08-22T10:45:05.460Z,34.00
2017-08-22T10:47:33.328Z,31.80
2017-08-22T10:50:01.194Z,38.60
2017-08-22T10:52:29.063Z,35.50
2017-08-22T10:54:56.930Z,35.90
2017-08-22T10:57:24.797Z,41.60
2017-08-22T10:59:52.664Z,38.20
2017-08-22T11:02:20.531Z,37.40
2017-08-22T11:04:48.523Z,33.40
2017-08-22T11:07:16.368Z,33.20
2017-08-22T11:09:44.236Z,35.80
2017-08-22T11:12:12.103Z,37.30
2017-08-22T11:14:39.970Z,36.90
2017-08-22T11:17:07.837Z,35.50
2017-08-22T11:19:35.706Z,36.10
2017-08-22T11:22:03.572Z,38.10
2017-08-22T11:24:31.438Z,35.10
2017-08-22T11:26:59.306Z,35.70
2017-08-22T11:29:27.173Z,31.30
2017-08-22T11:31:55.041Z,34.30
2017-08-22T11:34:22.908Z,34.70
2017-08-22T11:36:50.776Z,37.20
2017-08-22T11:39:18.642Z,38.00
2017-08-22T11:41:46.511Z,38.90
2017-08-22T11:44:14.377Z,34.90
2017-08-22T11:46:42.245Z,34.80
2017-08-22T11:49:10.112Z,36.00
2017-08-22T11:51:37.979Z,35.60
2017-08-22T11:54:05.846Z,34.80
2017-08-22T11:56:33.714Z,33.50
2017-08-22T11:59:01.581Z,33.70
2017-08-22T12:01:29.448Z,33.90
2017-08-22T12:03:57.315Z,35.20
2017-08-22T12:06:25.183Z,34.50
2017-08-22T12:08:53.049Z,36.70
2017-08-22T12:11:20.815Z,36.30
2017-08-22T12:13:48.682Z,35.90
2017-08-22T12:16:16.549Z,34.70
2017-08-22T12:18:44.415Z,34.50
2017-08-22T12:21:12.285Z,31.60
2017-08-22T12:23:40.154Z,35.00
2017-08-22T12:26:08.019Z,34.80
2017-08-22T12:28:35.893Z,37.90
2017-08-22T12:31:03.756Z,37.00
2017-08-22T12:33:31.619Z,37.20
2017-08-22T12:35:59.488Z,35.50
2017-08-22T12:38:27.353Z,34.80
2017-08-22T12:40:55.222Z,32.10
2017-08-22T12:43:23.088Z,33.90
2017-08-22T12:45:50.956Z,29.90
2017-08-22T12:48:18.823Z,33.00
2017-08-22T12:50:46.693Z,34.90
2017-08-22T12:53:14.557Z,31.20
2017-08-22T12:55:42.424Z,33.00
2017-08-22T12:58:10.292Z,34.40
2017-08-22T13:00:38.159Z,34.90
2017-08-22T13:03:06.026Z,34.70
2017-08-22T13:05:33.894Z,33.70
2017-08-22T13:08:01.761Z,31.40
2017-08-22T13:10:29.628Z,34.10
2017-08-22T13:12:57.496Z,33.70
2017-08-22T13:15:25.366Z,35.00
2017-08-22T13:17:53.230Z,34.40
2017-08-22T13:20:21.099Z,34.30
2017-08-22T13:22:48.972Z,35.00
2017-08-22T13:25:16.776Z,33.20
2017-08-22T13:27:44.534Z,32.30
2017-08-22T13:30:13.181Z,32.20
2017-08-22T13:32:41.053Z,32.30
2017-08-22T13:35:08.920Z,33.50
2017-08-22T13:37:36.785Z,33.20
2017-08-22T13:40:04.650Z,28.70
2017-08-22T13:42:32.518Z,33.30
2017-08-22T13:45:00.384Z,33.70
2017-08-22T13:47:28.253Z,34.70
2017-08-22T13:49:56.118Z,33.60
2017-08-22T13:52:23.986Z,33.00
2017-08-22T13:54:51.853Z,32.30
2017-08-22T13:57:19.720Z,28.80
2017-08-22T13:59:47.613Z,29.70
2017-08-22T14:02:15.456Z,36.10
2017-08-22T14:04:43.322Z,35.20
2017-08-22T14:07:11.189Z,38.20
2017-08-22T14:09:39.066Z,36.30
2017-08-22T14:12:06.924Z,37.10
2017-08-22T14:14:34.793Z,35.20
2017-08-22T14:17:02.658Z,35.70
2017-08-22T14:19:30.527Z,34.30
2017-08-22T14:21:58.393Z,34.30
2017-08-22T14:24:26.260Z,33.70
2017-08-22T14:26:54.127Z,35.20
2017-08-22T14:29:21.995Z,29.80
2017-08-22T14:31:50.068Z,30.00
2017-08-22T14:34:17.934Z,29.90
2017-08-22T14:36:45.802Z,33.00
2017-08-22T14:39:13.669Z,33.10
2017-08-22T14:41:41.535Z,29.40
2017-08-22T14:44:09.402Z,30.00
2017-08-22T14:46:37.270Z,32.00
2017-08-22T14:49:05.138Z,30.00
2017-08-22T14:51:33.005Z,34.40
2017-08-22T14:54:00.871Z,34.80
2017-08-22T14:56:28.739Z,36.60
2017-08-22T14:58:56.607Z,36.80
2017-08-22T15:01:24.480Z,36.40
2017-08-22T15:03:52.351Z,37.50
2017-08-22T15:06:20.208Z,36.00
2017-08-22T15:08:48.075Z,37.80
2017-08-22T15:11:15.968Z,37.60
2017-08-22T15:13:43.816Z,37.70
2017-08-22T15:16:11.678Z,35.30
2017-08-22T15:18:39.475Z,37.60
2017-08-22T15:21:07.310Z,37.10
2017-08-22T15:23:35.176Z,37.80
2017-08-22T15:26:03.044Z,37.80
2017-08-22T15:28:30.910Z,39.80
2017-08-22T15:30:58.779Z,38.80
2017-08-22T15:33:26.645Z,40.30
2017-08-22T15:35:54.517Z,42.10
2017-08-22T15:38:22.379Z,40.40
2017-08-22T15:40:50.184Z,44.20
2017-08-22T15:43:18.012Z,42.30
2017-08-22T15:45:45.879Z,44.20
2017-08-22T15:48:13.746Z,42.70
2017-08-22T15:51:18.581Z,40.00
2017-08-22T15:53:46.448Z,38.80
2017-08-22T15:56:14.308Z,41.70
2017-08-22T15:58:42.182Z,44.50
2017-08-22T16:01:10.049Z,39.30
2017-08-22T16:03:37.916Z,42.80
2017-08-22T16:06:05.783Z,43.70
2017-08-22T16:08:33.660Z,41.60
2017-08-22T16:11:01.451Z,41.50
2017-08-22T16:13:29.282Z,42.30
2017-08-22T16:15:57.150Z,43.20
2017-08-22T16:18:25.017Z,47.50
2017-08-22T16:20:52.885Z,47.40
2017-08-22T16:23:20.751Z,45.60
2017-08-22T16:25:48.619Z,46.60
2017-08-22T16:28:16.486Z,46.90
2017-08-22T16:30:44.354Z,46.90
2017-08-22T16:33:12.221Z,44.40
2017-08-22T16:35:40.088Z,41.70
2017-08-22T16:38:07.956Z,45.60
2017-08-22T16:40:35.822Z,43.70
2017-08-22T16:43:03.689Z,46.00
2017-08-22T16:45:31.559Z,53.80
2017-08-22T16:47:59.424Z,54.70
2017-08-22T16:50:27.292Z,52.30
2017-08-22T16:52:55.163Z,49.60
2017-08-22T16:55:23.029Z,50.80
2017-08-22T16:57:50.895Z,54.00
2017-08-22T17:00:18.761Z,54.70
2017-08-22T17:02:46.632Z,55.30
2017-08-22T17:05:14.505Z,56.80
2017-08-22T17:07:42.365Z,57.30
2017-08-22T17:10:10.230Z,56.70
2017-08-22T17:12:38.104Z,56.60
2017-08-22T17:15:05.965Z,55.80
2017-08-22T17:17:33.832Z,55.70
2017-08-22T17:20:01.700Z,55.50
2017-08-22T17:22:29.565Z,56.80
2017-08-22T17:24:57.435Z,57.50
2017-08-22T17:27:25.300Z,57.80
2017-08-22T17:29:53.167Z,57.90
2017-08-22T17:32:21.035Z,58.90
2017-08-22T17:34:48.902Z,59.10
2017-08-22T17:37:16.769Z,59.50
2017-08-22T17:39:44.636Z,60.00
2017-08-22T17:42:12.505Z,59.50
2017-08-22T17:44:40.371Z,59.60
2017-08-22T17:47:08.238Z,60.70
2017-08-22T17:49:36.105Z,61.70
2017-08-22T17:52:03.995Z,62.30
2017-08-22T17:54:31.841Z,62.60
2017-08-22T17:56:59.707Z,63.80
2017-08-22T17:59:27.573Z,64.30
2017-08-22T18:01:55.441Z,65.70
2017-08-22T18:04:23.309Z,65.90
2017-08-22T18:06:51.176Z,66.30
2017-08-22T18:09:19.043Z,65.50
2017-08-22T18:11:46.910Z,65.70
2017-08-22T18:14:14.779Z,65.70
2017-08-22T18:16:42.647Z,66.40
2017-08-22T18:19:10.512Z,66.30
2017-08-22T18:21:38.379Z,66.40
2017-08-22T18:24:06.246Z,66.70
2017-08-22T18:26:34.116Z,67.10
2017-08-22T18:29:01.981Z,67.90
2017-08-22T18:31:29.848Z,68.50
2017-08-22T18:33:57.717Z,68.90
2017-08-22T18:36:25.582Z,69.20
2017-08-22T18:38:53.450Z,70.20
2017-08-22T18:41:21.318Z,71.20
2017-08-22T18:43:49.185Z,71.70
2017-08-22T18:46:17.052Z,71.60
2017-08-22T18:48:44.919Z,72.90
2017-08-22T18:51:12.786Z,73.10
2017-08-22T18:53:40.659Z,74.00
2017-08-22T18:56:08.446Z,73.80
2017-08-22T18:58:36.188Z,74.70
2017-08-22T19:01:04.051Z,75.10
2017-08-22T19:03:31.917Z,74.50
2017-08-22T19:05:59.785Z,75.10
2017-08-22T19:08:27.511Z,75.20
2017-08-22T19:10:56.192Z,75.90
2017-08-22T19:13:23.927Z,75.20
2017-08-22T19:15:51.646Z,74.50
2017-08-22T19:18:19.660Z,74.50
2017-08-22T19:20:47.382Z,75.70
2017-08-22T19:23:15.103Z,74.70
2017-08-22T19:25:42.826Z,74.60
2017-08-22T19:28:10.559Z,75.10
2017-08-22T19:30:38.286Z,73.80
2017-08-22T19:33:06.046Z,74.30
2017-08-22T19:35:33.845Z,73.60
2017-08-22T19:38:01.852Z,73.60
2017-08-22T19:40:29.572Z,75.40
2017-08-22T19:42:57.314Z,77.20
2017-08-22T19:45:25.095Z,78.10
2017-08-22T19:47:52.813Z,77.90
2017-08-22T19:50:20.547Z,78.20
2017-08-22T19:52:48.261Z,78.30
2017-08-22T19:55:15.983Z,79.50
2017-08-22T19:57:43.710Z,81.10
2017-08-22T20:00:11.469Z,79.80
2017-08-22T20:02:39.173Z,78.60
2017-08-22T20:05:06.898Z,80.00
2017-08-22T20:07:34.626Z,81.00
2017-08-22T20:10:02.334Z,81.30
2017-08-22T20:12:30.038Z,82.70
2017-08-22T20:14:57.763Z,83.20
2017-08-22T20:17:25.478Z,82.50
2017-08-22T20:19:53.191Z,82.70
2017-08-22T20:22:20.913Z,81.80
2017-08-22T20:24:48.630Z,81.40
2017-08-22T20:27:16.341Z,81.60
2017-08-22T20:29:44.042Z,81.10
2017-08-22T20:32:11.751Z,80.50
2017-08-22T20:34:39.463Z,81.00
2017-08-22T20:37:07.173Z,80.70
2017-08-22T20:39:34.881Z,81.00
2017-08-22T20:42:02.598Z,80.40
2017-08-22T20:44:30.331Z,80.00
2017-08-22T20:46:58.045Z,79.40
2017-08-22T20:49:25.775Z,79.80
2017-08-22T20:51:53.508Z,79.30
2017-08-22T20:54:21.231Z,79.40
2017-08-22T20:56:48.946Z,79.20
2017-08-22T20:59:16.680Z,79.00
2017-08-22T21:01:44.414Z,79.20
2017-08-22T21:04:12.147Z,79.20
2017-08-22T21:06:39.880Z,80.00
2017-08-22T21:09:07.603Z,80.20
2017-08-22T21:11:35.323Z,80.40
2017-08-22T21:14:03.051Z,81.30
2017-08-22T21:16:30.779Z,82.20
2017-08-22T21:18:58.500Z,82.30
2017-08-22T21:21:26.243Z,81.70
2017-08-22T21:23:54.284Z,82.00
2017-08-22T21:26:22.003Z,81.90
2017-08-22T21:28:49.729Z,82.30
2017-08-22T21:31:17.454Z,81.80
2017-08-22T21:33:45.180Z,81.90
2017-08-22T21:36:12.914Z,82.20
2017-08-22T21:38:40.642Z,82.50
2017-08-22T21:41:08.359Z,82.10
2017-08-22T21:43:36.087Z,82.20
2017-08-22T21:46:03.810Z,82.50
2017-08-22T21:48:31.529Z,83.00
2017-08-22T21:50:59.244Z,82.80
2017-08-22T21:53:26.964Z,82.20
2017-08-22T21:55:54.683Z,82.70
2017-08-22T21:58:25.724Z,82.30
2017-08-22T22:00:57.124Z,81.90
2017-08-22T22:03:28.526Z,81.70
2017-08-22T22:05:59.341Z,81.60
2017-08-22T22:08:31.877Z,81.80
2017-08-22T22:11:04.371Z,81.50
2017-08-22T22:13:36.671Z,81.60
2017-08-22T22:16:09.451Z,81.60
2017-08-22T22:18:42.500Z,82.00
2017-08-22T22:21:15.607Z,83.00
2017-08-22T22:23:47.026Z,82.40
2017-08-22T22:26:17.898Z,82.80
2017-08-22T22:28:48.925Z,83.40
2017-08-22T22:31:18.908Z,83.60
2017-08-22T22:33:49.018Z,84.40
2017-08-22T22:36:19.356Z,84.20
2017-08-22T22:38:50.672Z,84.20
2017-08-22T22:41:21.691Z,84.00
2017-08-22T22:43:53.170Z,84.20
2017-08-22T22:46:25.329Z,84.00
2017-08-22T22:48:58.433Z,84.50
2017-08-22T22:51:31.764Z,84.10
2017-08-22T22:54:05.353Z,84.00
2017-08-22T22:56:36.932Z,83.90
2017-08-22T22:59:08.618Z,84.00
2017-08-22T23:01:38.522Z,84.70
2017-08-22T23:04:09.253Z,84.70
2017-08-22T23:06:39.839Z,84.40
2017-08-22T23:09:10.107Z,84.20
2017-08-22T23:11:43.172Z,84.20
2017-08-22T23:14:15.299Z,84.80
2017-08-22T23:16:47.811Z,84.80
2017-08-22T23:19:19.891Z,85.30
2017-08-22T23:21:52.311Z,85.40
2017-08-22T23:24:24.500Z,85.50
2017-08-22T23:26:56.594Z,85.60
2017-08-22T23:29:29.117Z,85.80
2017-08-22T23:32:01.574Z,86.50
2017-08-22T23:34:33.521Z,86.20
2017-08-22T23:37:04.106Z,86.30
2017-08-22T23:39:34.616Z,86.30
2017-08-22T23:42:04.742Z,86.40
2017-08-22T23:44:34.958Z,86.30
2017-08-22T23:47:04.395Z,86.70
2017-08-22T23:49:35.283Z,86.70
2017-08-22T23:52:06.729Z,85.90
2017-08-22T23:54:38.525Z,85.60
2017-08-22T23:57:10.453Z,86.00
2017-08-22T23:59:42.311Z,85.90
